Terminal Aerodrome Forecast
Issued by NWS Charleston, SC

Home | Current Version | Previous Version | Text Only | Print | Product List | Glossary On
Versions: 1 2 3 4 5 6 7 8 9 10 11 12
966
FTUS42 KCHS 292343
TAFSAV
TAF
KSAV 292343Z 3000/3024 13009KT P6SM SCT250
     FM300400 12004KT P6SM SCT004 SCT008
     FM300700 11003KT 3SM BR SCT003 BKN006
      TEMPO 3008/3012 1 1/2SM BR SCT002 BKN004
     FM301400 13008KT P6SM SCT020 BKN040
     FM301700 14010KT P6SM SCT020 BKN080=

USA.gov is the U.S. government's official web portal to all federal, state and local government web resources and services.